createdAt,value
2019-01-26T00:03:28.794Z,97137.86
2019-01-26T00:06:17.667Z,97133.19
2019-01-26T00:09:27.371Z,97129.36
2019-01-26T00:12:16.182Z,97128.50
2019-01-26T00:15:25.890Z,97124.22
2019-01-26T00:18:14.768Z,97123.00
2019-01-26T00:21:03.564Z,97120.46
2019-01-26T00:23:52.378Z,97113.70
2019-01-26T00:26:41.161Z,96856.22
2019-01-26T00:29:29.973Z,97115.79
2019-01-26T00:32:18.758Z,96922.73
2019-01-26T00:35:07.760Z,97101.84
2019-01-26T00:37:56.586Z,97098.54
2019-01-26T00:40:45.453Z,96869.93
2019-01-26T00:43:34.323Z,97086.67
2019-01-26T00:46:28.362Z,96808.25
2019-01-26T00:49:13.660Z,96838.20
2019-01-26T00:52:02.466Z,97083.72
2019-01-26T00:54:51.252Z,97086.31
2019-01-26T00:57:33.275Z,97078.19
2019-01-26T01:03:50.956Z,96848.95
2019-01-26T01:09:47.680Z,96806.64
2019-01-26T01:12:36.502Z,97071.96
2019-01-26T01:15:25.391Z,96836.27
2019-01-26T01:18:14.183Z,97065.60
2019-01-26T01:21:22.082Z,97059.30
2019-01-26T01:24:10.899Z,97056.33
2019-01-26T01:26:59.701Z,97054.18
2019-01-26T01:29:48.484Z,97064.78
2019-01-26T01:32:37.275Z,97056.31
2019-01-26T01:35:26.078Z,97053.80
2019-01-26T01:38:14.875Z,97058.81
2019-01-26T01:41:03.686Z,96808.89
2019-01-26T01:43:52.499Z,97063.09
2019-01-26T01:46:42.994Z,96805.91
2019-01-26T01:49:31.792Z,96996.16
2019-01-26T01:52:20.607Z,97068.98
2019-01-26T01:55:30.305Z,96836.33
2019-01-26T01:58:11.591Z,97054.64
2019-01-26T02:01:00.381Z,96985.25
2019-01-26T02:03:49.186Z,97047.88
2019-01-26T02:06:38.002Z,97047.05
2019-01-26T02:09:26.815Z,97038.98
2019-01-26T02:12:15.604Z,97030.97
2019-01-26T02:15:25.329Z,97027.16
2019-01-26T02:18:14.388Z,96751.45
2019-01-26T02:21:03.201Z,96840.67
2019-01-26T02:23:51.996Z,97021.23
2019-01-26T02:26:40.803Z,97014.44
2019-01-26T02:29:29.590Z,97013.19
2019-01-26T02:32:18.407Z,97013.20
2019-01-26T02:35:07.571Z,97013.19
2019-01-26T02:37:56.369Z,96943.41
2019-01-26T02:40:45.159Z,97012.79
2019-01-26T02:43:33.970Z,97017.86
2019-01-26T02:46:22.761Z,97013.60
2019-01-26T02:49:11.582Z,97015.72
2019-01-26T02:52:00.371Z,97010.66
2019-01-26T02:54:49.190Z,96998.39
2019-01-26T02:57:30.449Z,97003.02
2019-01-26T03:00:40.148Z,97001.77
2019-01-26T03:03:28.959Z,96999.23
2019-01-26T03:06:17.765Z,97000.48
2019-01-26T03:09:08.589Z,96766.36
2019-01-26T03:11:57.405Z,96993.70
2019-01-26T03:14:46.209Z,96999.64
2019-01-26T03:17:35.034Z,96996.24
2019-01-26T03:20:23.816Z,97004.27
2019-01-26T03:23:12.631Z,97004.70
2019-01-26T03:26:01.413Z,96997.06
2019-01-26T03:28:50.285Z,96996.19
2019-01-26T03:31:39.077Z,96999.13
2019-01-26T03:34:27.890Z,96991.98
2019-01-26T03:37:16.682Z,96994.97
2019-01-26T03:40:26.399Z,96992.80
2019-01-26T03:43:15.254Z,96768.44
2019-01-26T03:49:18.866Z,96980.16
2019-01-26T03:52:07.648Z,96982.27
2019-01-26T03:54:56.467Z,96984.81
2019-01-26T03:57:45.256Z,96988.13
2019-01-26T04:00:27.112Z,96991.06
2019-01-26T04:03:15.970Z,96988.56
2019-01-26T04:06:05.231Z,96826.23
2019-01-26T04:08:54.019Z,96714.39
2019-01-26T04:11:42.823Z,96731.25
2019-01-26T04:14:31.633Z,96969.03
2019-01-26T04:17:21.863Z,96967.27
2019-01-26T04:20:31.927Z,96965.61
2019-01-26T04:23:20.721Z,96974.02
2019-01-26T04:26:09.598Z,96890.78
2019-01-26T04:28:58.390Z,96962.33
2019-01-26T04:31:47.204Z,96959.79
2019-01-26T04:34:35.987Z,96960.56
2019-01-26T04:37:25.094Z,96946.53
2019-01-26T04:40:33.223Z,96857.01
2019-01-26T04:43:22.008Z,96959.63
2019-01-26T04:46:10.821Z,96886.50
2019-01-26T04:48:59.608Z,96938.81
2019-01-26T04:51:48.408Z,96705.36
2019-01-26T04:54:37.191Z,96939.19
2019-01-26T04:57:25.993Z,96937.80
2019-01-26T05:00:27.267Z,96934.34
2019-01-26T05:03:16.138Z,96937.69
2019-01-26T05:06:04.995Z,96935.45
2019-01-26T05:08:53.803Z,96930.42
2019-01-26T05:11:42.596Z,96922.36
2019-01-26T05:14:31.485Z,96923.25
2019-01-26T05:17:20.290Z,96913.37
2019-01-26T05:20:29.979Z,96913.77
2019-01-26T05:23:18.786Z,96920.00
2019-01-26T05:26:07.588Z,96920.23
2019-01-26T05:28:56.395Z,96924.13
2019-01-26T05:34:52.937Z,96918.59
2019-01-26T05:37:41.786Z,96920.28
2019-01-26T05:40:30.594Z,96921.97
2019-01-26T05:43:19.383Z,96845.97
2019-01-26T05:46:08.183Z,96925.81
2019-01-26T05:48:56.969Z,96934.36
2019-01-26T05:51:45.773Z,96924.96
2019-01-26T05:54:34.560Z,96930.34
2019-01-26T05:57:23.367Z,96933.70
2019-01-26T06:03:40.895Z,96926.85
2019-01-26T06:06:29.679Z,96720.20
2019-01-26T06:09:18.486Z,96925.38
2019-01-26T06:12:07.293Z,96933.09
2019-01-26T06:14:56.115Z,96916.41
2019-01-26T06:17:44.891Z,96910.00
2019-01-26T06:20:33.680Z,96752.57
2019-01-26T06:23:22.489Z,96900.36
2019-01-26T06:26:11.272Z,96896.36
2019-01-26T06:29:00.082Z,96893.37
2019-01-26T06:31:49.143Z,96908.92
2019-01-26T06:34:37.951Z,96905.59
2019-01-26T06:37:26.764Z,96691.66
2019-01-26T06:40:36.451Z,96908.47
2019-01-26T06:43:25.250Z,96761.98
2019-01-26T06:46:14.329Z,96903.68
2019-01-26T06:49:03.130Z,96901.14
2019-01-26T06:55:01.306Z,96896.58
2019-01-26T06:57:50.162Z,96892.11
2019-01-26T07:00:32.155Z,96893.44
2019-01-26T07:03:20.951Z,96889.27
2019-01-26T07:06:28.805Z,96872.95
2019-01-26T07:09:17.600Z,96876.74
2019-01-26T07:12:06.409Z,96886.59
2019-01-26T07:14:55.264Z,96889.33
2019-01-26T07:17:44.081Z,96888.38
2019-01-26T07:20:32.892Z,96876.63
2019-01-26T07:23:21.707Z,96883.70
2019-01-26T07:29:18.256Z,96876.59
2019-01-26T07:32:07.120Z,96865.34
2019-01-26T07:34:55.943Z,96866.49
2019-01-26T07:37:44.812Z,96876.37
2019-01-26T07:40:33.621Z,96875.34
2019-01-26T07:43:22.434Z,96884.91
2019-01-26T07:46:11.224Z,96876.63
2019-01-26T07:49:00.034Z,96878.80
2019-01-26T07:51:48.844Z,96875.19
2019-01-26T07:54:37.639Z,96875.72
2019-01-26T07:57:26.459Z,96877.64
2019-01-26T08:03:28.338Z,96873.14
2019-01-26T08:06:17.158Z,96875.13
2019-01-26T08:09:26.858Z,96866.02
2019-01-26T08:12:15.674Z,96865.23
2019-01-26T08:15:25.391Z,96717.38
2019-01-26T08:18:14.185Z,96866.23
2019-01-26T08:21:03.048Z,96865.53
2019-01-26T08:23:51.802Z,96856.14
2019-01-26T08:26:40.618Z,96791.16
2019-01-26T08:29:29.663Z,96861.41
2019-01-26T08:32:18.496Z,96676.94
2019-01-26T08:35:07.957Z,96596.88
2019-01-26T08:37:56.765Z,96871.44
2019-01-26T08:40:45.601Z,96860.36
2019-01-26T08:43:34.381Z,96868.09
2019-01-26T08:46:23.185Z,96871.62
2019-01-26T08:49:11.976Z,96858.09
2019-01-26T08:52:00.789Z,96858.22
2019-01-26T08:54:49.593Z,96662.15
2019-01-26T08:57:38.451Z,96854.86
2019-01-26T09:00:48.172Z,96857.08
2019-01-26T09:03:49.136Z,96854.53
2019-01-26T09:06:37.937Z,96856.47
2019-01-26T09:09:26.729Z,96853.55
2019-01-26T09:12:15.551Z,96848.02
2019-01-26T09:15:25.246Z,96853.55
2019-01-26T09:18:14.059Z,96710.55
2019-01-26T09:21:02.849Z,96859.88
2019-01-26T09:23:51.757Z,96859.52
2019-01-26T09:26:40.527Z,96857.80
2019-01-26T09:29:29.330Z,96865.10
2019-01-26T09:32:18.119Z,96865.98
2019-01-26T09:38:22.111Z,96870.88
2019-01-26T09:41:10.897Z,96649.21
2019-01-26T09:43:59.702Z,96876.02
2019-01-26T09:46:48.491Z,96877.44
2019-01-26T09:49:37.300Z,96882.45
2019-01-26T09:52:26.154Z,96884.83
2019-01-26T09:55:34.286Z,96634.73
2019-01-26T09:58:23.143Z,96888.53
2019-01-26T10:01:05.324Z,96882.72
2019-01-26T10:03:54.253Z,96876.25
2019-01-26T10:09:38.004Z,96873.83
2019-01-26T10:12:26.926Z,96797.69
2019-01-26T10:15:36.626Z,96870.04
2019-01-26T10:18:25.437Z,96639.81
2019-01-26T10:21:14.221Z,96874.00
2019-01-26T10:24:03.037Z,96873.34
2019-01-26T10:26:51.824Z,96865.42
2019-01-26T10:29:40.633Z,96867.46
2019-01-26T10:32:29.425Z,96866.95
2019-01-26T10:35:18.232Z,96661.50
2019-01-26T10:38:07.031Z,96863.73
2019-01-26T10:40:55.598Z,96869.53
2019-01-26T10:44:03.432Z,96631.41
2019-01-26T10:49:59.981Z,96862.01
2019-01-26T10:52:48.764Z,96855.84
2019-01-26T10:55:37.569Z,96849.23
2019-01-26T10:58:26.360Z,96851.77
2019-01-26T11:01:08.334Z,96616.97
2019-01-26T11:03:57.135Z,96851.09
2019-01-26T11:06:45.940Z,96848.53
2019-01-26T11:09:34.727Z,96850.86
2019-01-26T11:12:23.527Z,96605.96
2019-01-26T11:18:41.527Z,96821.09
2019-01-26T11:21:30.341Z,96841.32
2019-01-26T11:24:19.137Z,96842.08
2019-01-26T11:27:08.021Z,96838.89
2019-01-26T11:29:56.816Z,96823.27
2019-01-26T11:32:45.627Z,96829.28
2019-01-26T11:35:34.475Z,96834.04
2019-01-26T11:38:23.294Z,96828.23
2019-01-26T11:41:12.161Z,96824.88
2019-01-26T11:44:00.957Z,96820.39
2019-01-26T11:46:50.016Z,96821.88
2019-01-26T11:52:34.396Z,96822.97
2019-01-26T11:58:22.238Z,96819.38
2019-01-26T12:01:08.406Z,96818.19
2019-01-26T12:04:16.249Z,96818.14
2019-01-26T12:13:10.413Z,96797.34
2019-01-26T12:18:53.434Z,96796.19
2019-01-26T12:21:42.239Z,96750.66
2019-01-26T12:24:31.032Z,96800.52
2019-01-26T12:27:19.839Z,96805.82
2019-01-26T12:30:29.551Z,96798.69
2019-01-26T12:33:18.366Z,96809.32
2019-01-26T12:36:07.156Z,96801.19
2019-01-26T12:38:55.963Z,96796.70
2019-01-26T12:41:44.781Z,96795.14
2019-01-26T12:44:33.593Z,96789.08
2019-01-26T12:47:22.389Z,96790.03
2019-01-26T12:50:32.106Z,96796.86
2019-01-26T12:53:20.897Z,96785.97
2019-01-26T12:56:28.730Z,96788.52
2019-01-26T12:59:17.514Z,96797.19
2019-01-26T13:02:06.764Z,96787.19
2019-01-26T13:04:55.551Z,96618.83
2019-01-26T13:08:03.520Z,96780.74
2019-01-26T13:11:13.265Z,96544.38
2019-01-26T13:14:21.108Z,96777.37
2019-01-26T13:17:10.380Z,96775.48
2019-01-26T13:23:07.362Z,96776.23
2019-01-26T13:25:56.154Z,96776.53
2019-01-26T13:28:44.962Z,96530.21
2019-01-26T13:31:33.759Z,96771.80
2019-01-26T13:34:22.574Z,96612.81
2019-01-26T13:37:11.373Z,96760.23
2019-01-26T13:40:00.239Z,96729.86
2019-01-26T13:42:49.055Z,96753.64
2019-01-26T13:45:37.866Z,96756.91
2019-01-26T13:48:26.661Z,96745.11
2019-01-26T13:51:15.470Z,96743.22
2019-01-26T13:57:34.019Z,96737.95
2019-01-26T14:00:17.485Z,96508.20
2019-01-26T14:03:25.407Z,96731.84
2019-01-26T14:06:14.275Z,96732.33
2019-01-26T14:11:59.007Z,96727.66
2019-01-26T14:14:47.806Z,96719.46
2019-01-26T14:17:36.621Z,96640.59
2019-01-26T14:23:54.463Z,96615.42
2019-01-26T14:26:49.521Z,96718.13
2019-01-26T14:29:33.798Z,96470.52
2019-01-26T14:32:22.585Z,96698.63
2019-01-26T14:35:11.472Z,96704.80
2019-01-26T14:38:00.265Z,96695.34
2019-01-26T14:40:49.074Z,96699.08
2019-01-26T14:43:37.931Z,96703.69
2019-01-26T14:46:26.735Z,96694.09
2019-01-26T14:49:15.546Z,96697.53
2019-01-26T14:52:04.421Z,96693.31
2019-01-26T14:54:53.208Z,96588.55
2019-01-26T14:57:42.024Z,96691.77
2019-01-26T15:00:51.713Z,96682.84
2019-01-26T15:03:33.356Z,96690.76
2019-01-26T15:06:22.161Z,96690.11
2019-01-26T15:09:10.955Z,96687.13
2019-01-26T15:11:59.795Z,96686.84
2019-01-26T15:14:48.609Z,96703.92
2019-01-26T15:17:37.414Z,96694.44
2019-01-26T15:20:45.546Z,96689.88
2019-01-26T15:23:34.360Z,96444.19
2019-01-26T15:26:23.168Z,96539.37
2019-01-26T15:29:11.975Z,96672.80
2019-01-26T15:32:00.774Z,96674.25
2019-01-26T15:34:49.589Z,96665.98
2019-01-26T15:37:38.408Z,96518.30
2019-01-26T15:40:27.209Z,96666.81
2019-01-26T15:43:16.024Z,96664.20
2019-01-26T15:46:04.830Z,96659.45
2019-01-26T15:48:53.641Z,96408.86
2019-01-26T15:51:42.436Z,96651.02
2019-01-26T15:54:31.260Z,96652.03
2019-01-26T15:57:20.071Z,96650.64
2019-01-26T16:00:29.812Z,96547.18
2019-01-26T16:03:11.790Z,96636.33
2019-01-26T16:06:00.583Z,96636.48
2019-01-26T16:08:49.395Z,96634.48
2019-01-26T16:11:38.187Z,96629.31
2019-01-26T16:14:26.998Z,96628.28
2019-01-26T16:17:15.799Z,96626.69
2019-01-26T16:20:25.534Z,96416.89
2019-01-26T16:23:14.330Z,96624.37
2019-01-26T16:26:03.131Z,96615.16
2019-01-26T16:28:51.924Z,96617.30
2019-01-26T16:31:40.730Z,96605.95
2019-01-26T16:34:29.537Z,96608.02
2019-01-26T16:37:18.341Z,96514.59
2019-01-26T16:40:28.065Z,96605.44
2019-01-26T16:43:17.149Z,96525.66
2019-01-26T16:46:05.958Z,96394.03
2019-01-26T16:49:13.769Z,96594.97
2019-01-26T16:52:02.575Z,96594.33
2019-01-26T16:54:51.644Z,96586.98
2019-01-26T16:57:40.521Z,96488.16
2019-01-26T17:00:23.992Z,96580.59
2019-01-26T17:03:12.795Z,96577.91
2019-01-26T17:06:01.600Z,96580.80
2019-01-26T17:08:50.399Z,96583.03
2019-01-26T17:11:39.220Z,96572.84
2019-01-26T17:14:28.016Z,96575.86
2019-01-26T17:17:16.828Z,96566.43
2019-01-26T17:20:26.535Z,96467.33
2019-01-26T17:23:15.416Z,96563.27
2019-01-26T17:26:04.384Z,96563.71
2019-01-26T17:28:53.216Z,96562.22
2019-01-26T17:31:42.024Z,96556.66
2019-01-26T17:34:30.983Z,96557.70
2019-01-26T17:37:21.370Z,96556.05
2019-01-26T17:40:31.107Z,96548.02
2019-01-26T17:43:19.915Z,96544.83
2019-01-26T17:46:08.730Z,96539.39
2019-01-26T17:48:57.536Z,96294.40
2019-01-26T17:51:46.342Z,96534.61
2019-01-26T17:54:54.183Z,96536.68
2019-01-26T17:57:43.043Z,96528.53
2019-01-26T18:03:30.457Z,96309.80
2019-01-26T18:06:19.251Z,96373.75
2019-01-26T18:09:08.235Z,96516.02
2019-01-26T18:11:57.025Z,96509.45
2019-01-26T18:14:45.899Z,96506.15
2019-01-26T18:17:34.730Z,96499.24
2019-01-26T18:20:48.927Z,96492.69
2019-01-26T18:23:52.402Z,96487.14
2019-01-26T18:26:41.188Z,96480.73
2019-01-26T18:29:29.999Z,96477.23
2019-01-26T18:32:18.795Z,96481.70
2019-01-26T18:35:28.503Z,96472.52
2019-01-26T18:38:17.311Z,96465.55
2019-01-26T18:41:06.112Z,96465.53
2019-01-26T18:43:54.915Z,96454.31
2019-01-26T18:46:43.711Z,96459.47
2019-01-26T18:49:32.525Z,96455.97
2019-01-26T18:52:21.307Z,96462.03
2019-01-26T18:55:10.273Z,96451.69
2019-01-26T18:58:18.156Z,96175.31
2019-01-26T19:00:59.954Z,96228.09
2019-01-26T19:04:09.731Z,96436.58
2019-01-26T19:06:58.553Z,96430.29
2019-01-26T19:10:06.645Z,96423.84
2019-01-26T19:12:55.447Z,96422.82
2019-01-26T19:15:44.300Z,96417.80
2019-01-26T19:18:33.090Z,96415.88
2019-01-26T19:24:35.840Z,96398.89
2019-01-26T19:27:43.834Z,96391.92
2019-01-26T19:30:32.890Z,96388.61
2019-01-26T19:33:21.689Z,96388.09
2019-01-26T19:36:10.539Z,96380.92
2019-01-26T19:39:18.531Z,96370.50
2019-01-26T19:42:07.925Z,96371.14
2019-01-26T19:51:27.260Z,96355.36
2019-01-26T19:54:35.643Z,96151.64
2019-01-26T19:57:25.052Z,96268.89
2019-01-26T20:00:08.033Z,96336.54
2019-01-26T20:16:19.710Z,96094.70
2019-01-26T20:22:44.395Z,96310.55
2019-01-26T20:29:23.045Z,96296.25
2019-01-26T20:32:12.385Z,96256.41
2019-01-26T20:35:02.087Z,96278.92
2019-01-26T20:38:26.726Z,96265.52
2019-01-26T20:45:06.469Z,96269.34
2019-01-26T20:51:15.110Z,96261.19
2019-01-26T20:54:25.891Z,96256.84
2019-01-26T21:00:12.664Z,96117.02
2019-01-26T21:03:35.868Z,96251.23
2019-01-26T21:16:16.751Z,96221.78
2019-01-26T21:23:08.474Z,96213.11
2019-01-26T21:29:45.939Z,96211.09
2019-01-26T21:36:12.550Z,96162.50
2019-01-26T21:52:16.300Z,96173.48
2019-01-26T21:55:26.064Z,95926.03
2019-01-26T21:58:14.887Z,96167.11
2019-01-26T22:00:56.489Z,96183.13
2019-01-26T22:03:45.487Z,96158.94
2019-01-26T22:09:42.462Z,96138.70
2019-01-26T22:12:31.291Z,96143.31
2019-01-26T22:15:41.025Z,96133.73
2019-01-26T22:18:29.821Z,96134.70
2019-01-26T22:21:18.631Z,96132.77
2019-01-26T22:24:07.495Z,96057.02
2019-01-26T22:26:56.303Z,96128.11
2019-01-26T22:29:45.096Z,96123.33
2019-01-26T22:32:33.915Z,95842.48
2019-01-26T22:35:22.786Z,96098.39
2019-01-26T22:38:11.596Z,95872.99
2019-01-26T22:41:00.381Z,96010.14
2019-01-26T22:43:49.188Z,96077.55
2019-01-26T22:46:37.979Z,95953.92
2019-01-26T22:49:26.791Z,96072.41
2019-01-26T22:52:08.507Z,96071.95
2019-01-26T22:54:57.323Z,96063.14
2019-01-26T22:57:46.110Z,96051.79
2019-01-26T23:04:30.435Z,96056.45
2019-01-26T23:07:38.560Z,96050.37
2019-01-26T23:10:48.261Z,96038.97
2019-01-26T23:17:30.952Z,96030.76
2019-01-26T23:20:40.670Z,96023.63
2019-01-26T23:23:50.410Z,96015.53
2019-01-26T23:27:02.798Z,96016.53
2019-01-26T23:30:30.315Z,96010.66
2019-01-26T23:33:19.083Z,95753.17
2019-01-26T23:39:02.883Z,95996.70
2019-01-26T23:41:51.683Z,95987.17
2019-01-26T23:44:40.496Z,95982.53
2019-01-26T23:47:29.290Z,95976.09
2019-01-26T23:50:18.095Z,95959.57
2019-01-26T23:52:59.676Z,95810.03
2019-01-26T23:55:48.487Z,95953.95
2019-01-26T23:58:37.294Z,95943.86
